sensor_id;sensor_type;location;lat;lon;timestamp;P1;durP1;ratioP1;P2;durP2;ratioP2
46407;SDS011;32110;45.724;21.276;2022-08-11T00:01:05;3.63;;;2.00;;
46407;SDS011;32110;45.724;21.276;2022-08-11T00:03:33;5.43;;;2.15;;
46407;SDS011;32110;45.724;21.276;2022-08-11T00:06:00;2.45;;;1.90;;
46407;SDS011;32110;45.724;21.276;2022-08-11T00:08:26;2.45;;;1.90;;
46407;SDS011;32110;45.724;21.276;2022-08-11T00:10:53;4.45;;;2.03;;
46407;SDS011;32110;45.724;21.276;2022-08-11T00:13:22;5.53;;;1.88;;
46407;SDS011;32110;45.724;21.276;2022-08-11T00:15:56;5.93;;;2.60;;
46407;SDS011;32110;45.724;21.276;2022-08-11T00:18:22;2.10;;;1.88;;
46407;SDS011;32110;45.724;21.276;2022-08-11T00:20:48;2.60;;;2.13;;
46407;SDS011;32110;45.724;21.276;2022-08-11T00:23:15;3.35;;;2.28;;
46407;SDS011;32110;45.724;21.276;2022-08-11T00:25:44;7.05;;;2.90;;
46407;SDS011;32110;45.724;21.276;2022-08-11T00:28:22;3.65;;;3.08;;
46407;SDS011;32110;45.724;21.276;2022-08-11T00:30:48;7.47;;;3.20;;
46407;SDS011;32110;45.724;21.276;2022-08-11T00:33:15;7.65;;;3.17;;
46407;SDS011;32110;45.724;21.276;2022-08-11T00:35:42;4.68;;;2.83;;
46407;SDS011;32110;45.724;21.276;2022-08-11T00:38:09;6.28;;;3.30;;
46407;SDS011;32110;45.724;21.276;2022-08-11T00:49:37;18.90;;;9.32;;
46407;SDS011;32110;45.724;21.276;2022-08-11T00:54:42;18.67;;;9.43;;
46407;SDS011;32110;45.724;21.276;2022-08-11T00:57:50;18.80;;;8.80;;
46407;SDS011;32110;45.724;21.276;2022-08-11T01:00:22;17.23;;;9.75;;
46407;SDS011;32110;45.724;21.276;2022-08-11T01:22:14;2.63;;;2.40;;
46407;SDS011;32110;45.724;21.276;2022-08-11T01:25:14;2.38;;;2.00;;
46407;SDS011;32110;45.724;21.276;2022-08-11T01:28:00;2.63;;;2.20;;
46407;SDS011;32110;45.724;21.276;2022-08-11T01:30:42;2.60;;;2.03;;
46407;SDS011;32110;45.724;21.276;2022-08-11T02:06:53;5.32;;;2.92;;
46407;SDS011;32110;45.724;21.276;2022-08-11T02:12:21;4.32;;;2.92;;
46407;SDS011;32110;45.724;21.276;2022-08-11T02:20:34;4.30;;;2.88;;
46407;SDS011;32110;45.724;21.276;2022-08-11T02:23:16;4.82;;;2.88;;
46407;SDS011;32110;45.724;21.276;2022-08-11T02:26:10;5.68;;;3.00;;
46407;SDS011;32110;45.724;21.276;2022-08-11T02:31:23;4.45;;;3.20;;
46407;SDS011;32110;45.724;21.276;2022-08-11T02:34:10;3.72;;;2.88;;
46407;SDS011;32110;45.724;21.276;2022-08-11T02:39:28;5.88;;;3.17;;
46407;SDS011;32110;45.724;21.276;2022-08-11T02:45:10;5.90;;;2.97;;
46407;SDS011;32110;45.724;21.276;2022-08-11T02:50:48;5.10;;;2.90;;
46407;SDS011;32110;45.724;21.276;2022-08-11T02:53:22;6.00;;;2.92;;
46407;SDS011;32110;45.724;21.276;2022-08-11T03:00:59;7.70;;;2.88;;
46407;SDS011;32110;45.724;21.276;2022-08-11T03:03:41;7.65;;;3.28;;
46407;SDS011;32110;45.724;21.276;2022-08-11T03:06:18;5.53;;;3.20;;
46407;SDS011;32110;45.724;21.276;2022-08-11T03:14:47;6.28;;;2.95;;
46407;SDS011;32110;45.724;21.276;2022-08-11T03:17:33;3.88;;;2.85;;
46407;SDS011;32110;45.724;21.276;2022-08-11T03:22:34;11.82;;;4.00;;
46407;SDS011;32110;45.724;21.276;2022-08-11T03:25:08;5.38;;;3.10;;
46407;SDS011;32110;45.724;21.276;2022-08-11T03:30:12;5.00;;;3.22;;
46407;SDS011;32110;45.724;21.276;2022-08-11T03:32:59;6.50;;;3.28;;
46407;SDS011;32110;45.724;21.276;2022-08-11T03:36:02;5.25;;;3.55;;
46407;SDS011;32110;45.724;21.276;2022-08-11T03:38:31;6.15;;;3.30;;
46407;SDS011;32110;45.724;21.276;2022-08-11T03:41:13;4.28;;;3.28;;
46407;SDS011;32110;45.724;21.276;2022-08-11T03:44:08;7.50;;;3.42;;
46407;SDS011;32110;45.724;21.276;2022-08-11T04:02:48;9.52;;;3.90;;
46407;SDS011;32110;45.724;21.276;2022-08-11T04:07:52;8.70;;;3.20;;
46407;SDS011;32110;45.724;21.276;2022-08-11T04:13:18;9.98;;;3.53;;
46407;SDS011;32110;45.724;21.276;2022-08-11T04:16:09;10.95;;;3.65;;
46407;SDS011;32110;45.724;21.276;2022-08-11T04:24:42;6.55;;;3.08;;
46407;SDS011;32110;45.724;21.276;2022-08-11T04:32:25;11.82;;;3.30;;
46407;SDS011;32110;45.724;21.276;2022-08-11T04:37:31;10.67;;;3.53;;
46407;SDS011;32110;45.724;21.276;2022-08-11T04:51:19;5.75;;;3.15;;
46407;SDS011;32110;45.724;21.276;2022-08-11T04:54:17;5.47;;;3.03;;
46407;SDS011;32110;45.724;21.276;2022-08-11T04:57:07;7.13;;;3.30;;
46407;SDS011;32110;45.724;21.276;2022-08-11T05:00:00;5.53;;;2.85;;
46407;SDS011;32110;45.724;21.276;2022-08-11T05:03:02;10.20;;;2.88;;
46407;SDS011;32110;45.724;21.276;2022-08-11T05:13:28;6.67;;;3.27;;
46407;SDS011;32110;45.724;21.276;2022-08-11T05:16:17;9.32;;;2.72;;
46407;SDS011;32110;45.724;21.276;2022-08-11T05:19:02;15.40;;;2.97;;
46407;SDS011;32110;45.724;21.276;2022-08-11T05:21:50;6.22;;;2.65;;
46407;SDS011;32110;45.724;21.276;2022-08-11T05:28:05;5.63;;;3.15;;
46407;SDS011;32110;45.724;21.276;2022-08-11T05:31:08;4.22;;;2.55;;
46407;SDS011;32110;45.724;21.276;2022-08-11T05:34:28;8.25;;;2.70;;
46407;SDS011;32110;45.724;21.276;2022-08-11T05:37:07;4.50;;;2.40;;
46407;SDS011;32110;45.724;21.276;2022-08-11T05:39:43;9.15;;;2.40;;
46407;SDS011;32110;45.724;21.276;2022-08-11T05:42:27;5.20;;;2.70;;
46407;SDS011;32110;45.724;21.276;2022-08-11T05:45:15;5.53;;;2.38;;
46407;SDS011;32110;45.724;21.276;2022-08-11T05:48:00;4.53;;;2.63;;
46407;SDS011;32110;45.724;21.276;2022-08-11T05:50:49;6.30;;;2.28;;
46407;SDS011;32110;45.724;21.276;2022-08-11T05:53:33;7.28;;;2.22;;
46407;SDS011;32110;45.724;21.276;2022-08-11T05:56:17;3.85;;;2.30;;
46407;SDS011;32110;45.724;21.276;2022-08-11T05:58:51;4.28;;;2.28;;
46407;SDS011;32110;45.724;21.276;2022-08-11T06:01:21;6.72;;;2.17;;
46407;SDS011;32110;45.724;21.276;2022-08-11T06:03:53;7.47;;;2.08;;
46407;SDS011;32110;45.724;21.276;2022-08-11T06:09:22;6.18;;;2.28;;
46407;SDS011;32110;45.724;21.276;2022-08-11T06:11:47;3.47;;;1.92;;
46407;SDS011;32110;45.724;21.276;2022-08-11T06:14:14;4.13;;;1.98;;
46407;SDS011;32110;45.724;21.276;2022-08-11T06:16:40;8.88;;;1.90;;
46407;SDS011;32110;45.724;21.276;2022-08-11T06:19:06;2.88;;;2.13;;
46407;SDS011;32110;45.724;21.276;2022-08-11T06:21:33;2.55;;;2.08;;
46407;SDS011;32110;45.724;21.276;2022-08-11T06:24:01;9.05;;;3.22;;
46407;SDS011;32110;45.724;21.276;2022-08-11T06:26:29;4.47;;;1.95;;
46407;SDS011;32110;45.724;21.276;2022-08-11T06:28:56;3.35;;;2.15;;
46407;SDS011;32110;45.724;21.276;2022-08-11T06:31:23;4.13;;;2.15;;
46407;SDS011;32110;45.724;21.276;2022-08-11T06:41:31;4.75;;;2.50;;
46407;SDS011;32110;45.724;21.276;2022-08-11T06:46:55;7.10;;;2.25;;
46407;SDS011;32110;45.724;21.276;2022-08-11T06:49:41;4.30;;;1.80;;
46407;SDS011;32110;45.724;21.276;2022-08-11T06:52:34;2.15;;;1.50;;
46407;SDS011;32110;45.724;21.276;2022-08-11T06:55:12;7.05;;;1.92;;
46407;SDS011;32110;45.724;21.276;2022-08-11T06:58:15;2.35;;;1.60;;
46407;SDS011;32110;45.724;21.276;2022-08-11T07:01:07;3.88;;;1.77;;
46407;SDS011;32110;45.724;21.276;2022-08-11T07:03:38;1.67;;;1.58;;
46407;SDS011;32110;45.724;21.276;2022-08-11T07:06:22;3.80;;;1.40;;
46407;SDS011;32110;45.724;21.276;2022-08-11T07:15:05;3.85;;;1.45;;
46407;SDS011;32110;45.724;21.276;2022-08-11T07:17:53;2.85;;;1.45;;
46407;SDS011;32110;45.724;21.276;2022-08-11T07:20:39;3.58;;;1.40;;
46407;SDS011;32110;45.724;21.276;2022-08-11T07:23:24;3.85;;;1.70;;
46407;SDS011;32110;45.724;21.276;2022-08-11T07:26:09;2.95;;;1.30;;
46407;SDS011;32110;45.724;21.276;2022-08-11T07:28:54;4.47;;;1.60;;
46407;SDS011;32110;45.724;21.276;2022-08-11T07:31:23;4.35;;;1.30;;
46407;SDS011;32110;45.724;21.276;2022-08-11T07:34:12;2.95;;;1.40;;
46407;SDS011;32110;45.724;21.276;2022-08-11T07:36:45;2.90;;;1.40;;
46407;SDS011;32110;45.724;21.276;2022-08-11T07:39:22;5.35;;;1.58;;
46407;SDS011;32110;45.724;21.276;2022-08-11T07:41:49;2.30;;;1.23;;
46407;SDS011;32110;45.724;21.276;2022-08-11T07:44:15;6.95;;;1.25;;
46407;SDS011;32110;45.724;21.276;2022-08-11T07:46:42;2.35;;;1.35;;
46407;SDS011;32110;45.724;21.276;2022-08-11T07:49:28;4.85;;;1.80;;
46407;SDS011;32110;45.724;21.276;2022-08-11T07:52:15;1.70;;;1.27;;
46407;SDS011;32110;45.724;21.276;2022-08-11T07:54:50;3.78;;;1.50;;
46407;SDS011;32110;45.724;21.276;2022-08-11T07:57:17;2.13;;;1.48;;
46407;SDS011;32110;45.724;21.276;2022-08-11T08:00:02;2.50;;;1.20;;
46407;SDS011;32110;45.724;21.276;2022-08-11T08:02:46;1.42;;;1.33;;
46407;SDS011;32110;45.724;21.276;2022-08-11T08:05:30;4.35;;;1.25;;
46407;SDS011;32110;45.724;21.276;2022-08-11T08:08:14;7.22;;;1.45;;
46407;SDS011;32110;45.724;21.276;2022-08-11T08:10:59;3.00;;;1.65;;
46407;SDS011;32110;45.724;21.276;2022-08-11T08:13:43;2.53;;;1.63;;
46407;SDS011;32110;45.724;21.276;2022-08-11T08:16:29;2.30;;;1.50;;
46407;SDS011;32110;45.724;21.276;2022-08-11T08:19:14;3.08;;;1.60;;
46407;SDS011;32110;45.724;21.276;2022-08-11T08:21:41;3.55;;;1.55;;
46407;SDS011;32110;45.724;21.276;2022-08-11T08:24:09;3.70;;;1.75;;
46407;SDS011;32110;45.724;21.276;2022-08-11T08:26:35;4.53;;;1.40;;
46407;SDS011;32110;45.724;21.276;2022-08-11T08:29:21;3.35;;;1.48;;
46407;SDS011;32110;45.724;21.276;2022-08-11T08:32:06;3.08;;;1.25;;
46407;SDS011;32110;45.724;21.276;2022-08-11T08:37:01;2.60;;;1.50;;
46407;SDS011;32110;45.724;21.276;2022-08-11T08:39:27;1.50;;;1.40;;
46407;SDS011;32110;45.724;21.276;2022-08-11T08:41:55;3.83;;;1.52;;
46407;SDS011;32110;45.724;21.276;2022-08-11T08:44:21;2.40;;;1.30;;
46407;SDS011;32110;45.724;21.276;2022-08-11T08:46:49;4.65;;;1.70;;
46407;SDS011;32110;45.724;21.276;2022-08-11T08:49:30;3.30;;;1.45;;
46407;SDS011;32110;45.724;21.276;2022-08-11T08:52:00;4.32;;;1.30;;
46407;SDS011;32110;45.724;21.276;2022-08-11T08:54:35;3.60;;;1.50;;
46407;SDS011;32110;45.724;21.276;2022-08-11T08:57:02;2.13;;;1.40;;
46407;SDS011;32110;45.724;21.276;2022-08-11T08:59:30;1.88;;;1.50;;
46407;SDS011;32110;45.724;21.276;2022-08-11T09:02:02;1.73;;;1.63;;
46407;SDS011;32110;45.724;21.276;2022-08-11T09:04:30;4.93;;;1.70;;
46407;SDS011;32110;45.724;21.276;2022-08-11T09:06:57;2.25;;;1.40;;
46407;SDS011;32110;45.724;21.276;2022-08-11T09:09:27;2.20;;;1.25;;
46407;SDS011;32110;45.724;21.276;2022-08-11T09:11:54;1.55;;;1.30;;
46407;SDS011;32110;45.724;21.276;2022-08-11T09:14:24;1.63;;;1.13;;
46407;SDS011;32110;45.724;21.276;2022-08-11T09:17:19;2.75;;;1.40;;
46407;SDS011;32110;45.724;21.276;2022-08-11T09:19:44;2.80;;;1.60;;
46407;SDS011;32110;45.724;21.276;2022-08-11T09:22:11;1.85;;;1.38;;
46407;SDS011;32110;45.724;21.276;2022-08-11T09:25:05;2.97;;;1.35;;
46407;SDS011;32110;45.724;21.276;2022-08-11T09:27:50;3.75;;;1.42;;
46407;SDS011;32110;45.724;21.276;2022-08-11T09:30:18;2.35;;;1.30;;
46407;SDS011;32110;45.724;21.276;2022-08-11T09:32:44;3.50;;;1.83;;
46407;SDS011;32110;45.724;21.276;2022-08-11T09:35:12;2.30;;;1.60;;
46407;SDS011;32110;45.724;21.276;2022-08-11T09:37:38;1.63;;;1.30;;
46407;SDS011;32110;45.724;21.276;2022-08-11T09:40:23;1.60;;;1.50;;
46407;SDS011;32110;45.724;21.276;2022-08-11T09:42:56;1.98;;;1.48;;
46407;SDS011;32110;45.724;21.276;2022-08-11T09:45:47;3.70;;;1.77;;
46407;SDS011;32110;45.724;21.276;2022-08-11T09:48:18;3.08;;;1.23;;
46407;SDS011;32110;45.724;21.276;2022-08-11T09:50:54;1.98;;;1.67;;
46407;SDS011;32110;45.724;21.276;2022-08-11T09:53:24;2.70;;;1.55;;
46407;SDS011;32110;45.724;21.276;2022-08-11T09:55:52;1.70;;;1.60;;
46407;SDS011;32110;45.724;21.276;2022-08-11T09:58:18;4.13;;;1.50;;
46407;SDS011;32110;45.724;21.276;2022-08-11T10:00:47;1.92;;;1.80;;
46407;SDS011;32110;45.724;21.276;2022-08-11T10:03:21;2.53;;;1.50;;
46407;SDS011;32110;45.724;21.276;2022-08-11T10:05:52;3.70;;;1.60;;
46407;SDS011;32110;45.724;21.276;2022-08-11T10:08:39;3.33;;;1.55;;
46407;SDS011;32110;45.724;21.276;2022-08-11T10:11:13;2.92;;;1.60;;
46407;SDS011;32110;45.724;21.276;2022-08-11T10:13:45;3.35;;;1.60;;
46407;SDS011;32110;45.724;21.276;2022-08-11T10:16:33;1.90;;;1.60;;
46407;SDS011;32110;45.724;21.276;2022-08-11T10:24:30;2.78;;;1.38;;
46407;SDS011;32110;45.724;21.276;2022-08-11T10:27:14;1.67;;;1.40;;
46407;SDS011;32110;45.724;21.276;2022-08-11T10:29:40;2.88;;;1.70;;
46407;SDS011;32110;45.724;21.276;2022-08-11T10:32:26;2.92;;;1.75;;
46407;SDS011;32110;45.724;21.276;2022-08-11T10:35:13;7.70;;;1.80;;
46407;SDS011;32110;45.724;21.276;2022-08-11T10:37:40;2.83;;;1.73;;
46407;SDS011;32110;45.724;21.276;2022-08-11T10:40:07;2.65;;;1.50;;
46407;SDS011;32110;45.724;21.276;2022-08-11T10:42:35;4.55;;;1.70;;
46407;SDS011;32110;45.724;21.276;2022-08-11T10:45:21;2.67;;;1.60;;
46407;SDS011;32110;45.724;21.276;2022-08-11T10:48:07;7.07;;;1.50;;
46407;SDS011;32110;45.724;21.276;2022-08-11T10:50:34;4.95;;;1.50;;
46407;SDS011;32110;45.724;21.276;2022-08-11T10:53:18;4.78;;;1.70;;
46407;SDS011;32110;45.724;21.276;2022-08-11T10:56:03;2.35;;;1.77;;
46407;SDS011;32110;45.724;21.276;2022-08-11T10:58:48;3.25;;;1.48;;
46407;SDS011;32110;45.724;21.276;2022-08-11T11:01:23;2.13;;;1.50;;
46407;SDS011;32110;45.724;21.276;2022-08-11T11:03:54;2.97;;;1.40;;
46407;SDS011;32110;45.724;21.276;2022-08-11T11:09:04;1.42;;;1.33;;
46407;SDS011;32110;45.724;21.276;2022-08-11T11:11:40;1.75;;;1.48;;
46407;SDS011;32110;45.724;21.276;2022-08-11T11:14:29;3.47;;;1.10;;
46407;SDS011;32110;45.724;21.276;2022-08-11T11:17:14;4.63;;;1.50;;
46407;SDS011;32110;45.724;21.276;2022-08-11T11:19:54;3.45;;;1.45;;
46407;SDS011;32110;45.724;21.276;2022-08-11T11:22:23;2.60;;;1.58;;
46407;SDS011;32110;45.724;21.276;2022-08-11T11:25:07;2.65;;;1.48;;
46407;SDS011;32110;45.724;21.276;2022-08-11T11:27:56;7.22;;;2.15;;
46407;SDS011;32110;45.724;21.276;2022-08-11T11:30:41;3.28;;;2.00;;
46407;SDS011;32110;45.724;21.276;2022-08-11T11:33:28;2.88;;;1.60;;
46407;SDS011;32110;45.724;21.276;2022-08-11T11:39:00;2.72;;;1.63;;
46407;SDS011;32110;45.724;21.276;2022-08-11T11:41:26;3.28;;;1.83;;
46407;SDS011;32110;45.724;21.276;2022-08-11T11:43:53;2.08;;;1.40;;
46407;SDS011;32110;45.724;21.276;2022-08-11T11:46:21;3.70;;;1.53;;
46407;SDS011;32110;45.724;21.276;2022-08-11T11:48:50;1.88;;;1.52;;
46407;SDS011;32110;45.724;21.276;2022-08-11T11:51:18;2.30;;;1.50;;
46407;SDS011;32110;45.724;21.276;2022-08-11T11:53:45;1.30;;;1.20;;
46407;SDS011;32110;45.724;21.276;2022-08-11T11:56:12;4.78;;;1.60;;
46407;SDS011;32110;45.724;21.276;2022-08-11T11:58:39;6.53;;;1.65;;
46407;SDS011;32110;45.724;21.276;2022-08-11T12:01:24;2.97;;;1.50;;
46407;SDS011;32110;45.724;21.276;2022-08-11T12:03:50;3.90;;;1.40;;
46407;SDS011;32110;45.724;21.276;2022-08-11T12:06:19;2.40;;;1.45;;
46407;SDS011;32110;45.724;21.276;2022-08-11T12:08:47;2.83;;;1.40;;
46407;SDS011;32110;45.724;21.276;2022-08-11T12:11:15;2.38;;;1.38;;
46407;SDS011;32110;45.724;21.276;2022-08-11T12:14:02;2.53;;;1.40;;
46407;SDS011;32110;45.724;21.276;2022-08-11T12:16:29;5.10;;;1.58;;
46407;SDS011;32110;45.724;21.276;2022-08-11T12:18:58;2.15;;;1.42;;
46407;SDS011;32110;45.724;21.276;2022-08-11T12:21:25;4.15;;;1.60;;
46407;SDS011;32110;45.724;21.276;2022-08-11T12:23:51;3.30;;;1.23;;
46407;SDS011;32110;45.724;21.276;2022-08-11T12:26:39;2.25;;;1.13;;
46407;SDS011;32110;45.724;21.276;2022-08-11T12:29:17;3.53;;;1.38;;
46407;SDS011;32110;45.724;21.276;2022-08-11T12:31:44;1.98;;;1.58;;
46407;SDS011;32110;45.724;21.276;2022-08-11T12:34:12;1.75;;;1.45;;
46407;SDS011;32110;45.724;21.276;2022-08-11T12:36:45;2.53;;;1.40;;
46407;SDS011;32110;45.724;21.276;2022-08-11T12:39:18;3.63;;;1.40;;
46407;SDS011;32110;45.724;21.276;2022-08-11T12:42:07;2.08;;;1.17;;
46407;SDS011;32110;45.724;21.276;2022-08-11T12:44:57;2.28;;;1.30;;
46407;SDS011;32110;45.724;21.276;2022-08-11T12:47:45;2.72;;;1.63;;
46407;SDS011;32110;45.724;21.276;2022-08-11T12:50:33;4.13;;;1.35;;
46407;SDS011;32110;45.724;21.276;2022-08-11T12:53:23;1.17;;;1.08;;
46407;SDS011;32110;45.724;21.276;2022-08-11T12:55:53;1.25;;;1.15;;
46407;SDS011;32110;45.724;21.276;2022-08-11T12:58:39;1.58;;;1.30;;
46407;SDS011;32110;45.724;21.276;2022-08-11T13:01:07;2.00;;;1.40;;
46407;SDS011;32110;45.724;21.276;2022-08-11T13:03:51;2.97;;;1.30;;
46407;SDS011;32110;45.724;21.276;2022-08-11T13:06:36;2.15;;;1.67;;
46407;SDS011;32110;45.724;21.276;2022-08-11T13:09:03;1.85;;;1.50;;
46407;SDS011;32110;45.724;21.276;2022-08-11T13:11:30;2.88;;;1.55;;
46407;SDS011;32110;45.724;21.276;2022-08-11T13:14:15;4.63;;;1.20;;
46407;SDS011;32110;45.724;21.276;2022-08-11T13:16:44;4.20;;;1.55;;
46407;SDS011;32110;45.724;21.276;2022-08-11T13:19:29;2.40;;;1.55;;
46407;SDS011;32110;45.724;21.276;2022-08-11T13:21:56;2.83;;;1.63;;
46407;SDS011;32110;45.724;21.276;2022-08-11T13:24:22;6.65;;;1.88;;
46407;SDS011;32110;45.724;21.276;2022-08-11T13:26:48;4.65;;;1.70;;
46407;SDS011;32110;45.724;21.276;2022-08-11T13:29:25;2.08;;;1.48;;
46407;SDS011;32110;45.724;21.276;2022-08-11T13:31:53;1.55;;;1.45;;
46407;SDS011;32110;45.724;21.276;2022-08-11T13:34:25;5.32;;;1.38;;
46407;SDS011;32110;45.724;21.276;2022-08-11T13:36:56;3.58;;;1.38;;
46407;SDS011;32110;45.724;21.276;2022-08-11T13:39:26;3.05;;;1.40;;
46407;SDS011;32110;45.724;21.276;2022-08-11T13:41:55;4.35;;;1.35;;
46407;SDS011;32110;45.724;21.276;2022-08-11T13:44:23;3.70;;;1.33;;
46407;SDS011;32110;45.724;21.276;2022-08-11T13:46:52;3.28;;;1.38;;
46407;SDS011;32110;45.724;21.276;2022-08-11T13:49:24;2.33;;;1.50;;
46407;SDS011;32110;45.724;21.276;2022-08-11T13:51:50;3.47;;;1.45;;
46407;SDS011;32110;45.724;21.276;2022-08-11T13:54:17;4.90;;;1.48;;
46407;SDS011;32110;45.724;21.276;2022-08-11T13:56:47;4.00;;;1.85;;
46407;SDS011;32110;45.724;21.276;2022-08-11T13:59:17;4.97;;;1.50;;
46407;SDS011;32110;45.724;21.276;2022-08-11T14:01:56;2.35;;;1.38;;
46407;SDS011;32110;45.724;21.276;2022-08-11T14:04:33;2.20;;;1.38;;
46407;SDS011;32110;45.724;21.276;2022-08-11T14:07:17;4.22;;;1.63;;
46407;SDS011;32110;45.724;21.276;2022-08-11T14:09:48;3.90;;;1.80;;
46407;SDS011;32110;45.724;21.276;2022-08-11T14:12:21;4.50;;;1.58;;
46407;SDS011;32110;45.724;21.276;2022-08-11T14:15:13;1.70;;;1.38;;
46407;SDS011;32110;45.724;21.276;2022-08-11T14:17:44;4.72;;;1.83;;
46407;SDS011;32110;45.724;21.276;2022-08-11T14:20:14;2.75;;;1.58;;
46407;SDS011;32110;45.724;21.276;2022-08-11T14:22:42;2.03;;;1.30;;
46407;SDS011;32110;45.724;21.276;2022-08-11T14:25:10;4.33;;;1.77;;
46407;SDS011;32110;45.724;21.276;2022-08-11T14:27:39;2.83;;;1.73;;
46407;SDS011;32110;45.724;21.276;2022-08-11T14:30:05;1.90;;;1.40;;
46407;SDS011;32110;45.724;21.276;2022-08-11T14:32:52;5.93;;;1.70;;
46407;SDS011;32110;45.724;21.276;2022-08-11T14:35:18;4.53;;;2.08;;
46407;SDS011;32110;45.724;21.276;2022-08-11T14:37:44;4.55;;;1.55;;
46407;SDS011;32110;45.724;21.276;2022-08-11T14:40:11;2.85;;;1.45;;
46407;SDS011;32110;45.724;21.276;2022-08-11T14:42:57;6.47;;;1.63;;
46407;SDS011;32110;45.724;21.276;2022-08-11T14:45:43;2.47;;;1.50;;
46407;SDS011;32110;45.724;21.276;2022-08-11T14:48:28;3.42;;;1.48;;
46407;SDS011;32110;45.724;21.276;2022-08-11T14:50:54;4.70;;;1.67;;
46407;SDS011;32110;45.724;21.276;2022-08-11T14:53:21;3.55;;;1.38;;
46407;SDS011;32110;45.724;21.276;2022-08-11T14:55:47;7.53;;;1.83;;
46407;SDS011;32110;45.724;21.276;2022-08-11T14:58:32;3.83;;;1.42;;
46407;SDS011;32110;45.724;21.276;2022-08-11T15:00:58;3.15;;;1.48;;
46407;SDS011;32110;45.724;21.276;2022-08-11T15:03:26;3.22;;;1.50;;
46407;SDS011;32110;45.724;21.276;2022-08-11T15:05:56;7.72;;;1.67;;
46407;SDS011;32110;45.724;21.276;2022-08-11T15:08:22;2.17;;;1.90;;
46407;SDS011;32110;45.724;21.276;2022-08-11T15:11:09;4.32;;;1.98;;
46407;SDS011;32110;45.724;21.276;2022-08-11T15:13:55;2.58;;;1.42;;
46407;SDS011;32110;45.724;21.276;2022-08-11T15:16:23;2.97;;;2.63;;
46407;SDS011;32110;45.724;21.276;2022-08-11T15:19:08;2.63;;;2.38;;
46407;SDS011;32110;45.724;21.276;2022-08-11T15:21:34;2.15;;;1.70;;
46407;SDS011;32110;45.724;21.276;2022-08-11T15:24:17;3.85;;;1.80;;
46407;SDS011;32110;45.724;21.276;2022-08-11T15:26:43;4.47;;;1.55;;
46407;SDS011;32110;45.724;21.276;2022-08-11T15:29:31;6.60;;;1.80;;
46407;SDS011;32110;45.724;21.276;2022-08-11T15:32:18;3.70;;;1.57;;
46407;SDS011;32110;45.724;21.276;2022-08-11T15:35:08;3.70;;;1.55;;
46407;SDS011;32110;45.724;21.276;2022-08-11T15:37:55;3.25;;;1.60;;
46407;SDS011;32110;45.724;21.276;2022-08-11T15:40:24;2.60;;;1.60;;
46407;SDS011;32110;45.724;21.276;2022-08-11T15:43:22;3.88;;;1.83;;
46407;SDS011;32110;45.724;21.276;2022-08-11T15:46:19;3.00;;;1.50;;
46407;SDS011;32110;45.724;21.276;2022-08-11T15:48:49;6.80;;;1.83;;
46407;SDS011;32110;45.724;21.276;2022-08-11T15:51:26;1.88;;;1.67;;
46407;SDS011;32110;45.724;21.276;2022-08-11T15:54:08;6.20;;;2.05;;
46407;SDS011;32110;45.724;21.276;2022-08-11T15:56:40;2.05;;;1.63;;
46407;SDS011;32110;45.724;21.276;2022-08-11T15:59:14;3.00;;;1.70;;
46407;SDS011;32110;45.724;21.276;2022-08-11T16:02:00;7.10;;;1.58;;
46407;SDS011;32110;45.724;21.276;2022-08-11T16:04:47;4.95;;;2.13;;
46407;SDS011;32110;45.724;21.276;2022-08-11T16:07:15;8.23;;;1.70;;
46407;SDS011;32110;45.724;21.276;2022-08-11T16:12:21;5.70;;;1.90;;
46407;SDS011;32110;45.724;21.276;2022-08-11T16:14:51;6.30;;;2.50;;
46407;SDS011;32110;45.724;21.276;2022-08-11T16:17:39;5.78;;;2.10;;
46407;SDS011;32110;45.724;21.276;2022-08-11T16:20:16;3.20;;;1.85;;
46407;SDS011;32110;45.724;21.276;2022-08-11T16:22:47;3.58;;;2.00;;
46407;SDS011;32110;45.724;21.276;2022-08-11T16:25:16;2.65;;;1.90;;
46407;SDS011;32110;45.724;21.276;2022-08-11T16:27:49;5.95;;;1.95;;
46407;SDS011;32110;45.724;21.276;2022-08-11T16:30:18;4.30;;;1.80;;
46407;SDS011;32110;45.724;21.276;2022-08-11T16:32:44;3.00;;;1.77;;
46407;SDS011;32110;45.724;21.276;2022-08-11T16:35:16;2.05;;;1.70;;
46407;SDS011;32110;45.724;21.276;2022-08-11T16:38:03;6.90;;;2.03;;
46407;SDS011;32110;45.724;21.276;2022-08-11T16:40:50;4.70;;;2.70;;
46407;SDS011;32110;45.724;21.276;2022-08-11T16:43:17;4.53;;;2.03;;
46407;SDS011;32110;45.724;21.276;2022-08-11T16:46:03;2.50;;;1.80;;
46407;SDS011;32110;45.724;21.276;2022-08-11T16:48:49;7.07;;;3.30;;
46407;SDS011;32110;45.724;21.276;2022-08-11T16:51:19;2.95;;;1.70;;
46407;SDS011;32110;45.724;21.276;2022-08-11T16:53:46;5.35;;;2.08;;
46407;SDS011;32110;45.724;21.276;2022-08-11T16:56:14;7.57;;;2.38;;
46407;SDS011;32110;45.724;21.276;2022-08-11T16:58:43;16.25;;;10.07;;
46407;SDS011;32110;45.724;21.276;2022-08-11T17:01:53;11.50;;;7.47;;
46407;SDS011;32110;45.724;21.276;2022-08-11T17:04:38;6.10;;;3.33;;
46407;SDS011;32110;45.724;21.276;2022-08-11T17:07:28;4.72;;;3.58;;
46407;SDS011;32110;45.724;21.276;2022-08-11T17:13:07;5.07;;;3.55;;
46407;SDS011;32110;45.724;21.276;2022-08-11T17:15:34;5.30;;;2.90;;
46407;SDS011;32110;45.724;21.276;2022-08-11T17:18:20;4.50;;;2.28;;
46407;SDS011;32110;45.724;21.276;2022-08-11T17:24:00;4.35;;;2.30;;
46407;SDS011;32110;45.724;21.276;2022-08-11T17:26:33;3.08;;;2.00;;
46407;SDS011;32110;45.724;21.276;2022-08-11T17:29:25;6.15;;;2.50;;
46407;SDS011;32110;45.724;21.276;2022-08-11T17:31:54;7.60;;;3.58;;
46407;SDS011;32110;45.724;21.276;2022-08-11T17:34:41;11.85;;;5.88;;
46407;SDS011;32110;45.724;21.276;2022-08-11T17:37:30;6.68;;;3.00;;
46407;SDS011;32110;45.724;21.276;2022-08-11T17:39:58;4.63;;;2.60;;
46407;SDS011;32110;45.724;21.276;2022-08-11T17:42:27;6.57;;;2.85;;
46407;SDS011;32110;45.724;21.276;2022-08-11T17:45:14;8.77;;;2.80;;
46407;SDS011;32110;45.724;21.276;2022-08-11T17:48:01;6.13;;;2.80;;
46407;SDS011;32110;45.724;21.276;2022-08-11T17:50:47;6.13;;;2.42;;
46407;SDS011;32110;45.724;21.276;2022-08-11T17:53:15;4.35;;;2.75;;
46407;SDS011;32110;45.724;21.276;2022-08-11T17:56:00;4.68;;;2.40;;
46407;SDS011;32110;45.724;21.276;2022-08-11T17:58:46;2.95;;;2.30;;
46407;SDS011;32110;45.724;21.276;2022-08-11T18:01:33;4.97;;;1.95;;
46407;SDS011;32110;45.724;21.276;2022-08-11T18:04:01;6.70;;;2.15;;
46407;SDS011;32110;45.724;21.276;2022-08-11T18:08:57;5.75;;;2.22;;
46407;SDS011;32110;45.724;21.276;2022-08-11T18:11:42;15.48;;;2.58;;
46407;SDS011;32110;45.724;21.276;2022-08-11T18:14:30;6.15;;;2.10;;
46407;SDS011;32110;45.724;21.276;2022-08-11T18:17:15;4.53;;;2.25;;
46407;SDS011;32110;45.724;21.276;2022-08-11T18:20:00;4.07;;;2.22;;
46407;SDS011;32110;45.724;21.276;2022-08-11T18:22:44;7.18;;;2.80;;
46407;SDS011;32110;45.724;21.276;2022-08-11T18:25:31;6.93;;;2.85;;
46407;SDS011;32110;45.724;21.276;2022-08-11T18:28:20;6.22;;;2.55;;
46407;SDS011;32110;45.724;21.276;2022-08-11T18:31:08;7.55;;;2.92;;
46407;SDS011;32110;45.724;21.276;2022-08-11T18:33:58;4.10;;;2.60;;
46407;SDS011;32110;45.724;21.276;2022-08-11T18:36:49;6.30;;;2.90;;
46407;SDS011;32110;45.724;21.276;2022-08-11T18:39:43;6.10;;;2.67;;
46407;SDS011;32110;45.724;21.276;2022-08-11T18:42:30;5.32;;;2.80;;
46407;SDS011;32110;45.724;21.276;2022-08-11T18:45:15;7.10;;;2.85;;
46407;SDS011;32110;45.724;21.276;2022-08-11T18:48:02;8.52;;;2.70;;
46407;SDS011;32110;45.724;21.276;2022-08-11T18:50:54;6.43;;;2.42;;
46407;SDS011;32110;45.724;21.276;2022-08-11T18:53:41;6.15;;;2.60;;